Flight Briefing for CPX676

Departure Arrival
Providenciales International Airport (MBPV)
Click to view FAA NOTAMS
Lynden Pindling International Airport (MYNN)
Click to view FAA NOTAMS
Departure Time Arrival Time
N/A N/A
Aircraft Distance
SF340AF 347nm
Departure METAR Arrival METAR
MBPV 251600Z 09005KT 9999 SCT012TCU 28/22 Q3002 MYNN 260000Z 11006KT 9999 FEW020 24/20 A3005
Suggested Route
PVN BR2L DUKKY A555 ZQA


View recent IFR Routes data
Notes



Charts and Procedures

Charts for MBPV
No chart available
Charts for MYNN
No chart available

Windy.com Weather Map